SKW4981 KROW-KPHX
Flight info
| Callsign | SKW4981 |
|---|---|
| Flight time | 1h 20m |
| Altitude | 40000 |
| Route | CME J15 CNX ZUN EAGUL6 |
| Aircraft | CRJ7/M-SDFGIRWY/S |
Departure
| Time | 2026-05-06 00:14 |
|---|---|
| Airport | Roswell Air Center Airport (KROW) |
Arrival
| Time | 2026-05-06 01:35 |
|---|---|
| Airport | Phoenix Sky Harbor International Airport (KPHX) |
| Time | Latitude | Longitude | Altitude | Speed | Heading |
|---|---|---|---|---|---|
| 2026-05-06 00:08 | 33.30625 | -104.51881 | 3645 ft | 0 kts | 64° |
| 2026-05-06 00:11 | 33.30629 | -104.51865 | 3643 ft | 7 kts | 78° |
| 2026-05-06 00:11 | 33.30649 | -104.51750 | 3636 ft | 21 kts | 80° |
| 2026-05-06 00:11 | 33.30686 | -104.51583 | 3635 ft | 19 kts | 47° |
| 2026-05-06 00:12 | 33.30781 | -104.51471 | 3636 ft | 20 kts | 45° |
| 2026-05-06 00:12 | 33.30879 | -104.51353 | 3633 ft | 20 kts | 44° |
| 2026-05-06 00:12 | 33.30984 | -104.51234 | 3631 ft | 21 kts | 45° |
| 2026-05-06 00:12 | 33.31089 | -104.51107 | 3634 ft | 22 kts | 44° |
| 2026-05-06 00:13 | 33.31209 | -104.50990 | 3633 ft | 23 kts | 38° |
| 2026-05-06 00:13 | 33.31313 | -104.50864 | 3626 ft | 20 kts | 90° |
| 2026-05-06 00:13 | 33.31214 | -104.50783 | 3628 ft | 19 kts | 169° |
| 2026-05-06 00:13 | 33.31123 | -104.50713 | 3625 ft | 13 kts | 174° |
| 2026-05-06 00:14 | 33.31046 | -104.50786 | 3629 ft | 31 kts | 225° |
| 2026-05-06 00:14 | 33.30731 | -104.51160 | 3634 ft | 98 kts | 225° |
| 2026-05-06 00:14 | 33.30108 | -104.51882 | 3720 ft | 144 kts | 224° |
| 2026-05-06 00:14 | 33.29350 | -104.52735 | 4379 ft | 154 kts | 228° |
| 2026-05-06 00:15 | 33.29003 | -104.53954 | 4922 ft | 169 kts | 277° |
| 2026-05-06 00:15 | 33.29693 | -104.55196 | 5557 ft | 190 kts | 309° |
| 2026-05-06 00:15 | 33.30675 | -104.56296 | 6183 ft | 201 kts | 310° |
| 2026-05-06 00:15 | 33.31725 | -104.57454 | 6610 ft | 214 kts | 310° |
| 2026-05-06 00:16 | 33.32905 | -104.58743 | 6810 ft | 243 kts | 313° |
| 2026-05-06 00:16 | 33.34305 | -104.60005 | 7306 ft | 260 kts | 320° |
| 2026-05-06 00:16 | 33.35726 | -104.61384 | 7907 ft | 261 kts | 302° |
| 2026-05-06 00:16 | 33.36382 | -104.63327 | 8751 ft | 250 kts | 273° |
| 2026-05-06 00:17 | 33.36644 | -104.65390 | 9552 ft | 256 kts | 288° |
| 2026-05-06 00:17 | 33.37682 | -104.67171 | 10275 ft | 267 kts | 306° |
| 2026-05-06 00:17 | 33.38935 | -104.68845 | 10860 ft | 277 kts | 306° |
| 2026-05-06 00:17 | 33.40306 | -104.70575 | 11262 ft | 294 kts | 311° |
| 2026-05-06 00:18 | 33.41871 | -104.72182 | 12000 ft | 299 kts | 316° |
| 2026-05-06 00:18 | 33.43552 | -104.73686 | 12733 ft | 303 kts | 318° |
| 2026-05-06 00:18 | 33.45272 | -104.75171 | 13484 ft | 306 kts | 318° |
| 2026-05-06 00:18 | 33.47005 | -104.76674 | 14144 ft | 309 kts | 317° |
| 2026-05-06 00:19 | 33.48746 | -104.78185 | 14843 ft | 310 kts | 317° |
| 2026-05-06 00:19 | 33.50489 | -104.79728 | 15502 ft | 312 kts | 316° |
| 2026-05-06 00:19 | 33.52235 | -104.81288 | 16151 ft | 314 kts | 316° |
| 2026-05-06 00:19 | 33.53992 | -104.82861 | 16760 ft | 317 kts | 316° |
| 2026-05-06 00:20 | 33.55758 | -104.84452 | 17388 ft | 318 kts | 315° |
| 2026-05-06 00:20 | 33.57489 | -104.86108 | 18002 ft | 319 kts | 313° |
| 2026-05-06 00:20 | 33.59194 | -104.87818 | 18540 ft | 320 kts | 311° |
| 2026-05-06 00:20 | 33.60894 | -104.89555 | 19065 ft | 323 kts | 311° |
| 2026-05-06 00:21 | 33.62612 | -104.91304 | 19589 ft | 325 kts | 310° |
| 2026-05-06 00:21 | 33.64342 | -104.93066 | 20096 ft | 327 kts | 310° |
| 2026-05-06 00:21 | 33.66084 | -104.94839 | 20603 ft | 329 kts | 309° |
| 2026-05-06 00:21 | 33.67837 | -104.96626 | 21110 ft | 332 kts | 308° |
| 2026-05-06 00:22 | 33.69601 | -104.98421 | 21596 ft | 334 kts | 308° |
| 2026-05-06 00:22 | 33.71381 | -105.00226 | 22093 ft | 336 kts | 308° |
| 2026-05-06 00:22 | 33.73170 | -105.02047 | 22564 ft | 338 kts | 307° |
| 2026-05-06 00:22 | 33.74968 | -105.03882 | 22995 ft | 341 kts | 306° |
| 2026-05-06 00:23 | 33.76780 | -105.05729 | 23445 ft | 342 kts | 306° |
| 2026-05-06 00:23 | 33.78598 | -105.07590 | 23815 ft | 344 kts | 306° |
| 2026-05-06 00:23 | 33.80427 | -105.09462 | 24293 ft | 347 kts | 306° |
| 2026-05-06 00:23 | 33.82273 | -105.11355 | 24765 ft | 350 kts | 306° |
| 2026-05-06 00:24 | 33.84130 | -105.13260 | 25238 ft | 353 kts | 306° |
| 2026-05-06 00:24 | 33.86002 | -105.15182 | 25666 ft | 355 kts | 306° |
| 2026-05-06 00:24 | 33.87888 | -105.17118 | 26088 ft | 358 kts | 306° |
| 2026-05-06 00:24 | 33.89787 | -105.19069 | 26510 ft | 360 kts | 306° |
| 2026-05-06 00:25 | 33.91699 | -105.21038 | 26893 ft | 363 kts | 306° |
| 2026-05-06 00:25 | 33.93625 | -105.23020 | 27290 ft | 366 kts | 306° |
| 2026-05-06 00:25 | 33.95565 | -105.25018 | 27674 ft | 368 kts | 306° |
| 2026-05-06 00:25 | 33.97518 | -105.27028 | 28074 ft | 370 kts | 306° |
| 2026-05-06 00:26 | 33.99480 | -105.29048 | 28467 ft | 372 kts | 305° |
| 2026-05-06 00:26 | 34.01449 | -105.31082 | 28820 ft | 374 kts | 305° |
| 2026-05-06 00:26 | 34.03434 | -105.33130 | 29186 ft | 377 kts | 305° |
| 2026-05-06 00:26 | 34.05430 | -105.35190 | 29561 ft | 379 kts | 305° |
| 2026-05-06 00:27 | 34.07435 | -105.37263 | 29902 ft | 381 kts | 305° |
| 2026-05-06 00:27 | 34.09450 | -105.39345 | 30223 ft | 382 kts | 305° |
| 2026-05-06 00:27 | 34.11470 | -105.41431 | 30532 ft | 383 kts | 305° |
| 2026-05-06 00:27 | 34.13496 | -105.43525 | 30811 ft | 384 kts | 305° |
| 2026-05-06 00:28 | 34.15502 | -105.45600 | 31122 ft | 386 kts | 304° |
| 2026-05-06 00:28 | 34.17541 | -105.47711 | 31427 ft | 387 kts | 304° |
| 2026-05-06 00:28 | 34.19587 | -105.49834 | 31709 ft | 388 kts | 304° |
| 2026-05-06 00:28 | 34.21632 | -105.51953 | 32069 ft | 386 kts | 304° |
| 2026-05-06 00:29 | 34.23669 | -105.54065 | 32436 ft | 385 kts | 304° |
| 2026-05-06 00:29 | 34.25700 | -105.56174 | 32748 ft | 384 kts | 304° |
| 2026-05-06 00:29 | 34.27723 | -105.58274 | 33050 ft | 384 kts | 303° |
| 2026-05-06 00:29 | 34.29744 | -105.60376 | 33367 ft | 382 kts | 303° |
| 2026-05-06 00:30 | 34.31731 | -105.62495 | 33680 ft | 373 kts | 298° |
| 2026-05-06 00:30 | 34.33238 | -105.64901 | 33919 ft | 350 kts | 287° |
| 2026-05-06 00:30 | 34.34471 | -105.67427 | 34168 ft | 347 kts | 286° |
| 2026-05-06 00:30 | 34.35641 | -105.69965 | 34411 ft | 344 kts | 284° |
| 2026-05-06 00:31 | 34.36754 | -105.72515 | 34656 ft | 341 kts | 283° |
| 2026-05-06 00:31 | 34.37798 | -105.75078 | 34891 ft | 337 kts | 281° |
| 2026-05-06 00:31 | 34.38685 | -105.77668 | 35119 ft | 328 kts | 276° |
| 2026-05-06 00:31 | 34.39300 | -105.80297 | 35338 ft | 321 kts | 272° |
| 2026-05-06 00:32 | 34.39781 | -105.82923 | 35539 ft | 319 kts | 270° |
| 2026-05-06 00:32 | 34.40188 | -105.85547 | 35748 ft | 316 kts | 269° |
| 2026-05-06 00:32 | 34.40584 | -105.88160 | 35937 ft | 316 kts | 270° |
| 2026-05-06 00:32 | 34.41039 | -105.90770 | 36114 ft | 317 kts | 271° |
| 2026-05-06 00:33 | 34.41522 | -105.93373 | 36282 ft | 317 kts | 271° |
| 2026-05-06 00:33 | 34.42004 | -105.95969 | 36461 ft | 316 kts | 271° |
| 2026-05-06 00:33 | 34.42488 | -105.98563 | 36668 ft | 316 kts | 271° |
| 2026-05-06 00:33 | 34.42979 | -106.01151 | 36831 ft | 315 kts | 271° |
| 2026-05-06 00:34 | 34.43460 | -106.03734 | 37003 ft | 314 kts | 270° |
| 2026-05-06 00:34 | 34.43933 | -106.06314 | 37167 ft | 313 kts | 270° |
| 2026-05-06 00:34 | 34.44407 | -106.08891 | 37334 ft | 313 kts | 270° |
| 2026-05-06 00:34 | 34.44880 | -106.11464 | 37472 ft | 313 kts | 270° |
| 2026-05-06 00:35 | 34.45355 | -106.14034 | 37617 ft | 313 kts | 270° |
| 2026-05-06 00:35 | 34.45818 | -106.16567 | 37756 ft | 313 kts | 270° |
| 2026-05-06 00:35 | 34.46290 | -106.19133 | 37906 ft | 312 kts | 270° |
| 2026-05-06 00:35 | 34.46759 | -106.21698 | 38043 ft | 311 kts | 270° |
| 2026-05-06 00:36 | 34.47229 | -106.24258 | 38166 ft | 311 kts | 270° |
| 2026-05-06 00:36 | 34.47695 | -106.26814 | 38301 ft | 311 kts | 270° |
| 2026-05-06 00:36 | 34.48161 | -106.29371 | 38416 ft | 310 kts | 270° |
| 2026-05-06 00:37 | 34.49089 | -106.34484 | 38595 ft | 310 kts | 270° |
| 2026-05-06 00:37 | 34.50017 | -106.39607 | 38715 ft | 312 kts | 270° |
| 2026-05-06 00:38 | 34.50946 | -106.44744 | 38853 ft | 312 kts | 270° |
| 2026-05-06 00:38 | 34.51875 | -106.49907 | 38946 ft | 314 kts | 270° |
| 2026-05-06 00:39 | 34.52804 | -106.55086 | 39072 ft | 315 kts | 270° |
| 2026-05-06 00:39 | 34.53737 | -106.60287 | 39184 ft | 316 kts | 271° |
| 2026-05-06 00:40 | 34.54670 | -106.65507 | 39260 ft | 317 kts | 271° |
| 2026-05-06 00:40 | 34.55605 | -106.70754 | 39353 ft | 318 kts | 271° |
| 2026-05-06 00:41 | 34.56532 | -106.76015 | 39436 ft | 320 kts | 271° |
| 2026-05-06 00:41 | 34.57470 | -106.81304 | 39500 ft | 321 kts | 271° |
| 2026-05-06 00:42 | 34.58403 | -106.86574 | 39621 ft | 321 kts | 271° |
| 2026-05-06 00:42 | 34.59338 | -106.91871 | 39713 ft | 322 kts | 271° |
| 2026-05-06 00:43 | 34.60276 | -106.97199 | 39732 ft | 324 kts | 271° |
| 2026-05-06 00:43 | 34.61219 | -107.02571 | 39742 ft | 327 kts | 271° |
| 2026-05-06 00:44 | 34.62169 | -107.07996 | 39748 ft | 330 kts | 271° |
| 2026-05-06 00:44 | 34.63125 | -107.13479 | 39745 ft | 333 kts | 271° |
| 2026-05-06 00:45 | 34.64089 | -107.19015 | 39755 ft | 337 kts | 272° |
| 2026-05-06 00:45 | 34.65061 | -107.24609 | 39754 ft | 340 kts | 272° |
| 2026-05-06 00:46 | 34.66042 | -107.30256 | 39761 ft | 343 kts | 272° |
| 2026-05-06 00:46 | 34.67024 | -107.35964 | 39771 ft | 347 kts | 272° |
| 2026-05-06 00:47 | 34.68017 | -107.41736 | 39767 ft | 351 kts | 272° |
| 2026-05-06 00:47 | 34.69019 | -107.47569 | 39769 ft | 354 kts | 272° |
| 2026-05-06 00:48 | 34.70025 | -107.53454 | 39768 ft | 357 kts | 272° |
| 2026-05-06 00:48 | 34.71040 | -107.59392 | 39784 ft | 360 kts | 272° |
| 2026-05-06 00:49 | 34.72059 | -107.65384 | 39789 ft | 364 kts | 272° |
| 2026-05-06 00:49 | 34.73086 | -107.71437 | 39791 ft | 367 kts | 272° |
| 2026-05-06 00:50 | 34.74119 | -107.77543 | 39797 ft | 370 kts | 272° |
| 2026-05-06 00:50 | 34.75157 | -107.83703 | 39796 ft | 373 kts | 273° |
| 2026-05-06 00:51 | 34.76024 | -107.88862 | 39809 ft | 376 kts | 273° |
| 2026-05-06 00:51 | 34.77076 | -107.95121 | 39809 ft | 379 kts | 273° |
| 2026-05-06 00:52 | 34.78131 | -108.01432 | 39810 ft | 382 kts | 273° |
| 2026-05-06 00:52 | 34.79190 | -108.07794 | 39804 ft | 385 kts | 273° |
| 2026-05-06 00:53 | 34.80252 | -108.14198 | 39807 ft | 387 kts | 273° |
| 2026-05-06 00:53 | 34.81315 | -108.20638 | 39812 ft | 389 kts | 273° |
| 2026-05-06 00:54 | 34.82384 | -108.27115 | 39813 ft | 391 kts | 273° |
| 2026-05-06 00:54 | 34.83453 | -108.33626 | 39811 ft | 393 kts | 273° |
| 2026-05-06 00:55 | 34.84522 | -108.40168 | 39813 ft | 395 kts | 273° |
| 2026-05-06 00:55 | 34.85593 | -108.46739 | 39814 ft | 397 kts | 273° |
| 2026-05-06 00:56 | 34.86667 | -108.53338 | 39806 ft | 398 kts | 273° |
| 2026-05-06 00:56 | 34.87732 | -108.59915 | 39825 ft | 399 kts | 273° |
| 2026-05-06 00:57 | 34.88804 | -108.66561 | 39856 ft | 401 kts | 273° |
| 2026-05-06 00:57 | 34.89874 | -108.73228 | 39886 ft | 402 kts | 273° |
| 2026-05-06 00:58 | 34.90945 | -108.79920 | 39919 ft | 403 kts | 273° |
| 2026-05-06 00:58 | 34.92017 | -108.86633 | 39945 ft | 404 kts | 273° |
| 2026-05-06 00:59 | 34.93087 | -108.93370 | 39963 ft | 405 kts | 273° |
| 2026-05-06 00:59 | 34.94157 | -109.00125 | 39959 ft | 407 kts | 273° |
| 2026-05-06 01:00 | 34.94995 | -109.06895 | 39937 ft | 397 kts | 262° |
| 2026-05-06 01:00 | 34.94264 | -109.13497 | 39904 ft | 393 kts | 257° |
| 2026-05-06 01:01 | 34.93392 | -109.20082 | 39863 ft | 394 kts | 256° |
| 2026-05-06 01:01 | 34.92458 | -109.26664 | 39820 ft | 394 kts | 255° |
| 2026-05-06 01:02 | 34.90481 | -109.32797 | 39785 ft | 390 kts | 242° |
| 2026-05-06 01:02 | 34.88058 | -109.38711 | 39776 ft | 391 kts | 243° |
| 2026-05-06 01:03 | 34.85840 | -109.44766 | 39784 ft | 392 kts | 245° |
| 2026-05-06 01:03 | 34.83619 | -109.50828 | 39790 ft | 393 kts | 244° |
| 2026-05-06 01:04 | 34.81387 | -109.56901 | 39792 ft | 393 kts | 244° |
| 2026-05-06 01:04 | 34.79143 | -109.62975 | 39783 ft | 394 kts | 244° |
| 2026-05-06 01:05 | 34.76900 | -109.69061 | 39772 ft | 394 kts | 244° |
| 2026-05-06 01:05 | 34.74649 | -109.75150 | 39776 ft | 395 kts | 244° |
| 2026-05-06 01:06 | 34.72407 | -109.81201 | 39777 ft | 396 kts | 244° |
| 2026-05-06 01:06 | 34.70136 | -109.87295 | 39814 ft | 396 kts | 244° |
| 2026-05-06 01:07 | 34.67874 | -109.93401 | 39856 ft | 396 kts | 244° |
| 2026-05-06 01:07 | 34.65602 | -109.99502 | 39900 ft | 397 kts | 244° |
| 2026-05-06 01:08 | 34.63319 | -110.05623 | 39713 ft | 402 kts | 244° |
| 2026-05-06 01:08 | 34.62167 | -110.08707 | 39258 ft | 399 kts | 244° |
| 2026-05-06 01:08 | 34.61025 | -110.11763 | 38802 ft | 396 kts | 244° |
| 2026-05-06 01:08 | 34.59896 | -110.14787 | 38290 ft | 392 kts | 244° |
| 2026-05-06 01:09 | 34.58773 | -110.17781 | 37734 ft | 388 kts | 244° |
| 2026-05-06 01:09 | 34.57663 | -110.20744 | 37196 ft | 384 kts | 244° |
| 2026-05-06 01:09 | 34.56563 | -110.23677 | 36660 ft | 380 kts | 244° |
| 2026-05-06 01:09 | 34.55473 | -110.26582 | 36143 ft | 376 kts | 244° |
| 2026-05-06 01:10 | 34.54393 | -110.29456 | 35614 ft | 372 kts | 244° |
| 2026-05-06 01:10 | 34.53325 | -110.32297 | 34999 ft | 371 kts | 243° |
| 2026-05-06 01:10 | 34.52258 | -110.35131 | 34517 ft | 366 kts | 243° |
| 2026-05-06 01:10 | 34.51218 | -110.37895 | 33962 ft | 356 kts | 243° |
| 2026-05-06 01:11 | 34.50205 | -110.40586 | 33177 ft | 347 kts | 243° |
| 2026-05-06 01:11 | 34.49216 | -110.43204 | 32668 ft | 335 kts | 243° |
| 2026-05-06 01:11 | 34.48251 | -110.45767 | 32255 ft | 336 kts | 243° |
| 2026-05-06 01:11 | 34.47279 | -110.48339 | 31849 ft | 335 kts | 243° |
| 2026-05-06 01:12 | 34.46310 | -110.50898 | 31445 ft | 333 kts | 243° |
| 2026-05-06 01:12 | 34.45346 | -110.53442 | 31048 ft | 331 kts | 243° |
| 2026-05-06 01:12 | 34.44387 | -110.55973 | 30658 ft | 330 kts | 243° |
| 2026-05-06 01:12 | 34.43434 | -110.58485 | 30291 ft | 327 kts | 243° |
| 2026-05-06 01:13 | 34.42490 | -110.60976 | 29920 ft | 324 kts | 242° |
| 2026-05-06 01:13 | 34.41551 | -110.63447 | 29469 ft | 321 kts | 242° |
| 2026-05-06 01:13 | 34.40619 | -110.65890 | 29038 ft | 318 kts | 242° |
| 2026-05-06 01:13 | 34.39698 | -110.68304 | 28612 ft | 316 kts | 243° |
| 2026-05-06 01:14 | 34.37862 | -110.73113 | 27754 ft | 314 kts | 243° |
| 2026-05-06 01:14 | 34.36945 | -110.75507 | 27335 ft | 313 kts | 243° |
| 2026-05-06 01:14 | 34.35991 | -110.77877 | 26960 ft | 313 kts | 239° |
| 2026-05-06 01:15 | 34.34756 | -110.80058 | 26661 ft | 315 kts | 234° |
| 2026-05-06 01:15 | 34.33399 | -110.82160 | 26366 ft | 319 kts | 231° |
| 2026-05-06 01:15 | 34.31923 | -110.84180 | 26079 ft | 322 kts | 229° |
| 2026-05-06 01:15 | 34.30371 | -110.86147 | 25802 ft | 325 kts | 228° |
| 2026-05-06 01:16 | 34.28813 | -110.88093 | 25508 ft | 327 kts | 228° |
| 2026-05-06 01:16 | 34.27224 | -110.90077 | 25247 ft | 329 kts | 229° |
| 2026-05-06 01:16 | 34.25648 | -110.92094 | 24975 ft | 331 kts | 229° |
| 2026-05-06 01:16 | 34.24045 | -110.94160 | 24712 ft | 334 kts | 229° |
| 2026-05-06 01:17 | 34.22477 | -110.96185 | 24456 ft | 335 kts | 229° |
| 2026-05-06 01:17 | 34.20899 | -110.98220 | 24197 ft | 327 kts | 229° |
| 2026-05-06 01:17 | 34.19364 | -111.00199 | 23926 ft | 319 kts | 229° |
| 2026-05-06 01:17 | 34.17866 | -111.02132 | 23654 ft | 312 kts | 229° |
| 2026-05-06 01:18 | 34.16397 | -111.04020 | 23364 ft | 306 kts | 229° |
| 2026-05-06 01:18 | 34.14951 | -111.05874 | 23027 ft | 301 kts | 229° |
| 2026-05-06 01:18 | 34.13526 | -111.07710 | 22704 ft | 302 kts | 229° |
| 2026-05-06 01:18 | 34.12080 | -111.09596 | 22412 ft | 310 kts | 229° |
| 2026-05-06 01:19 | 34.10612 | -111.11531 | 22079 ft | 315 kts | 229° |
| 2026-05-06 01:19 | 34.09122 | -111.13490 | 21761 ft | 319 kts | 229° |
| 2026-05-06 01:19 | 34.07610 | -111.15460 | 21462 ft | 322 kts | 229° |
| 2026-05-06 01:19 | 34.06078 | -111.17439 | 21163 ft | 323 kts | 229° |
| 2026-05-06 01:20 | 34.04538 | -111.19420 | 20858 ft | 324 kts | 228° |
| 2026-05-06 01:20 | 34.02998 | -111.21393 | 20520 ft | 321 kts | 228° |
| 2026-05-06 01:20 | 34.01481 | -111.23332 | 20182 ft | 315 kts | 228° |
| 2026-05-06 01:20 | 33.99989 | -111.25246 | 19839 ft | 311 kts | 228° |
| 2026-05-06 01:21 | 33.98517 | -111.27134 | 19494 ft | 307 kts | 228° |
| 2026-05-06 01:21 | 33.97058 | -111.29003 | 19155 ft | 305 kts | 228° |
| 2026-05-06 01:21 | 33.95612 | -111.30854 | 18814 ft | 302 kts | 227° |
| 2026-05-06 01:21 | 33.94171 | -111.32693 | 18471 ft | 301 kts | 227° |
| 2026-05-06 01:22 | 33.92738 | -111.34523 | 18117 ft | 300 kts | 227° |
| 2026-05-06 01:22 | 33.91311 | -111.36347 | 17724 ft | 299 kts | 228° |
| 2026-05-06 01:22 | 33.89885 | -111.38174 | 17332 ft | 302 kts | 227° |
| 2026-05-06 01:22 | 33.88436 | -111.40019 | 16961 ft | 304 kts | 226° |
| 2026-05-06 01:23 | 33.86836 | -111.41692 | 16593 ft | 305 kts | 218° |
| 2026-05-06 01:23 | 33.85098 | -111.43168 | 16168 ft | 306 kts | 216° |
| 2026-05-06 01:23 | 33.83333 | -111.44602 | 15747 ft | 306 kts | 216° |
| 2026-05-06 01:23 | 33.81573 | -111.46030 | 15329 ft | 305 kts | 216° |
| 2026-05-06 01:24 | 33.79839 | -111.47460 | 14919 ft | 297 kts | 216° |
| 2026-05-06 01:24 | 33.78176 | -111.48874 | 14507 ft | 288 kts | 217° |
| 2026-05-06 01:24 | 33.76540 | -111.50281 | 14126 ft | 290 kts | 217° |
| 2026-05-06 01:24 | 33.74905 | -111.51684 | 13737 ft | 285 kts | 217° |
| 2026-05-06 01:25 | 33.73314 | -111.53049 | 13321 ft | 277 kts | 216° |
| 2026-05-06 01:25 | 33.71773 | -111.54377 | 12934 ft | 269 kts | 217° |
| 2026-05-06 01:25 | 33.70274 | -111.55677 | 12574 ft | 262 kts | 217° |
| 2026-05-06 01:25 | 33.68819 | -111.56941 | 12254 ft | 254 kts | 217° |
| 2026-05-06 01:26 | 33.67423 | -111.58157 | 11928 ft | 249 kts | 217° |
| 2026-05-06 01:26 | 33.66028 | -111.59364 | 11571 ft | 245 kts | 217° |
| 2026-05-06 01:26 | 33.64648 | -111.60547 | 11207 ft | 242 kts | 217° |
| 2026-05-06 01:26 | 33.63278 | -111.61706 | 10868 ft | 240 kts | 216° |
| 2026-05-06 01:27 | 33.61918 | -111.62845 | 10523 ft | 237 kts | 216° |
| 2026-05-06 01:27 | 33.60568 | -111.63967 | 10178 ft | 235 kts | 216° |
| 2026-05-06 01:27 | 33.59223 | -111.65082 | 9817 ft | 234 kts | 217° |
| 2026-05-06 01:27 | 33.57886 | -111.66189 | 9425 ft | 233 kts | 216° |
| 2026-05-06 01:28 | 33.56555 | -111.67291 | 9041 ft | 232 kts | 217° |
| 2026-05-06 01:28 | 33.55241 | -111.68389 | 8660 ft | 230 kts | 217° |
| 2026-05-06 01:28 | 33.53933 | -111.69493 | 8259 ft | 229 kts | 217° |
| 2026-05-06 01:28 | 33.52648 | -111.70586 | 7879 ft | 227 kts | 218° |
| 2026-05-06 01:29 | 33.51351 | -111.71685 | 7476 ft | 228 kts | 217° |
| 2026-05-06 01:29 | 33.50074 | -111.72769 | 7075 ft | 222 kts | 218° |
| 2026-05-06 01:29 | 33.48824 | -111.73824 | 6726 ft | 219 kts | 218° |
| 2026-05-06 01:29 | 33.47579 | -111.74874 | 6391 ft | 219 kts | 218° |
| 2026-05-06 01:30 | 33.46469 | -111.76081 | 6037 ft | 214 kts | 236° |
| 2026-05-06 01:30 | 33.45671 | -111.77602 | 5686 ft | 219 kts | 242° |
| 2026-05-06 01:30 | 33.44941 | -111.79213 | 5341 ft | 221 kts | 243° |
| 2026-05-06 01:30 | 33.44239 | -111.80836 | 4996 ft | 218 kts | 248° |
| 2026-05-06 01:31 | 33.43982 | -111.82452 | 4258 ft | 183 kts | 268° |
| 2026-05-06 01:31 | 33.44025 | -111.83898 | 3782 ft | 158 kts | 273° |
| 2026-05-06 01:31 | 33.44105 | -111.85104 | 3666 ft | 136 kts | 270° |
| 2026-05-06 01:31 | 33.44111 | -111.86210 | 3346 ft | 129 kts | 270° |
| 2026-05-06 01:32 | 33.44120 | -111.87255 | 3108 ft | 125 kts | 269° |
| 2026-05-06 01:32 | 33.44123 | -111.88315 | 2959 ft | 132 kts | 268° |
| 2026-05-06 01:32 | 33.44089 | -111.89465 | 2837 ft | 144 kts | 266° |
| 2026-05-06 01:32 | 33.44061 | -111.90664 | 2668 ft | 142 kts | 269° |
| 2026-05-06 01:33 | 33.44081 | -111.91844 | 2481 ft | 142 kts | 270° |
| 2026-05-06 01:33 | 33.44088 | -111.93023 | 2280 ft | 142 kts | 269° |
| 2026-05-06 01:33 | 33.44079 | -111.94192 | 2015 ft | 136 kts | 268° |
| 2026-05-06 01:33 | 33.44075 | -111.95318 | 1846 ft | 138 kts | 268° |
| 2026-05-06 01:34 | 33.44086 | -111.96490 | 1639 ft | 143 kts | 268° |
| 2026-05-06 01:34 | 33.44080 | -111.97657 | 1431 ft | 132 kts | 270° |
| 2026-05-06 01:34 | 33.44083 | -111.98774 | 1230 ft | 136 kts | 269° |
| 2026-05-06 01:34 | 33.44086 | -111.99840 | 1131 ft | 119 kts | 269° |
| 2026-05-06 01:35 | 33.44081 | -112.00726 | 1118 ft | 88 kts | 270° |
| 2026-05-06 01:35 | 33.44084 | -112.01339 | 1125 ft | 59 kts | 270° |
| 2026-05-06 01:35 | 33.44061 | -112.01667 | 1122 ft | 25 kts | 230° |
| 2026-05-06 01:35 | 33.43976 | -112.01646 | 1117 ft | 14 kts | 94° |
| 2026-05-06 01:36 | 33.43975 | -112.01523 | 1123 ft | 15 kts | 89° |
| 2026-05-06 01:36 | 33.43975 | -112.01389 | 1123 ft | 17 kts | 90° |
| 2026-05-06 01:36 | 33.43974 | -112.01246 | 1123 ft | 18 kts | 90° |
| 2026-05-06 01:36 | 33.43975 | -112.01091 | 1117 ft | 23 kts | 90° |
| 2026-05-06 01:37 | 33.43974 | -112.00885 | 1117 ft | 25 kts | 90° |
| 2026-05-06 01:37 | 33.43974 | -112.00671 | 1120 ft | 26 kts | 90° |
| 2026-05-06 01:37 | 33.43973 | -112.00449 | 1116 ft | 27 kts | 90° |
| 2026-05-06 01:37 | 33.43974 | -112.00221 | 1117 ft | 28 kts | 90° |
| 2026-05-06 01:38 | 33.43973 | -111.99990 | 1119 ft | 28 kts | 90° |
| 2026-05-06 01:38 | 33.43973 | -111.99754 | 1120 ft | 28 kts | 90° |
| 2026-05-06 01:38 | 33.43952 | -111.99566 | 1120 ft | 19 kts | 144° |
| 2026-05-06 01:38 | 33.43824 | -111.99531 | 1119 ft | 20 kts | 179° |
| 2026-05-06 01:39 | 33.43762 | -111.99528 | 1118 ft | 2 kts | 147° |
| 2026-05-06 01:39 | 33.43755 | -111.99517 | 1120 ft | 3 kts | 111° |
| 2026-05-06 01:39 | 33.43754 | -111.99488 | 1120 ft | 1 kts | 90° |
| 2026-05-06 01:39 | 33.43754 | -111.99487 | 1120 ft | 0 kts | 90° |